• Join FlightAware (Why Join?)
  • Login
  • US Flag GB Flag 
18:52 EDT


 

Airport Tracker/Info


-or-


 

Live Flight TrackerFlight Track Log ✈ N680AN ✈ 30-Apr-2013 ✈ KMIA - KLAX

Flight Track Log - Related Links

Times and Time Zones

All times are in EDT time to prevent confusion due to time zone crossing. See the N680AN flight status page for this flight to view local times or setup timezone preferences in your user account.

Time Position Orientation Groundspeed Altitude Reporting Facility
EDT Latitude Longitude Course Direction KTS MPH feet Rate Location/Type
21:27 25.8006 -80.2606 318° Northwest 173 199 1,300  Level Miami Center
21:28 25.8039 -80.2008 86° East 236 272 2,900 2,220 Climbing Miami Center
21:29 25.9415 -80.4582 318° Northwest  Level FlightAware Approximate
21:29 25.8347 -80.1325 63° Northeast 273 314 5,600  Level Miami Center
21:30 26.0180 -80.5517 310° West  Level FlightAware Approximate
21:30 25.9008 -80.1642 337° Northwest 278 320 8,600  Level Miami Center
21:31 26.0949 -80.6449 318° Northwest  Level FlightAware Approximate
21:31 25.9425 -80.2600 296° West 284 327 11,800  Level Miami Center
21:32 26.1796 -80.7296 318° Northwest  Level FlightAware Approximate
21:32 25.9819 -80.3583 294° West 312 359 13,200  Level Miami Center
21:33 26.0233 -80.4658 293° West 351 404 15,300 2,280 Climbing Miami Center
21:34 26.0664 -80.5806 293° West 383 441 17,800 2,280 Climbing Miami Center
21:35 26.1328 -80.6819 306° West 404 465 19,900 1,920 Climbing Miami Center
21:36 26.2200 -80.7728 317° Northwest 409 471 21,700 1,500 Climbing Miami Center
21:37 26.3075 -80.8636 317° Northwest 428 493 23,000 840 Climbing Miami Center
21:38 26.3886 -80.9453 318° Northwest 441 507 23,400 1,140 Climbing Miami Center
21:39 26.4944 -81.0442 320° Northwest 441 507 25,300 1,740 Climbing Miami Center
21:40 26.6011 -81.1128 330° Northwest 451 519 26,900 1,500 Climbing Miami Center
21:41 26.7014 -81.1794 329° Northwest 451 519 28,300 1,560 Climbing Miami Center
21:42 26.8264 -81.2606 330° Northwest 462 532 30,100 1,620 Climbing Miami Center
21:43 26.9389 -81.3347 330° Northwest 462 532 31,600 1,620 Climbing Miami Center
21:44 27.0497 -81.3997 332° Northwest 457 526 33,400 1,800 Climbing Miami Center
21:45 27.1581 -81.4739 329° Northwest 457 526 35,200 1,620 Climbing Miami Center
21:46 27.2542 -81.5339 331° Northwest 447 514 36,700 1,140 Climbing Miami Center
21:47 27.3583 -81.6036 329° Northwest 447 514 37,500 600 Climbing Miami Center
21:48 27.4728 -81.6783 330° Northwest 435 501 38,000 240 Climbing Miami Center
21:49 27.5811 -81.7461 331° Northwest 435 501 38,000  Level Miami Center
21:51 27.8122 -81.8883 331° Northwest 448 516 38,000  Level Jacksonville Center
21:52 27.9169 -81.9650 327° Northwest 453 521 38,000  Level Jacksonville Center
21:53 28.0178 -82.0417 326° Northwest 443 510 38,000  Level Jacksonville Center
21:54 28.1122 -82.1256 322° Northwest 437 503 38,000  Level Jacksonville Center
21:55 28.2067 -82.2094 322° Northwest 437 503 38,000  Level Jacksonville Center
21:56 28.3008 -82.2961 321° Northwest 437 503 38,000  Level Jacksonville Center
21:57 28.3953 -82.3806 322° Northwest 437 503 38,000  Level Jacksonville Center
21:58 28.4936 -82.4675 322° Northwest 437 503 38,000  Level Jacksonville Center
21:59 28.5897 -82.5522 322° Northwest 442 509 38,000  Level Jacksonville Center
22:00 28.6861 -82.6417 321° Northwest 442 509 38,000  Level Jacksonville Center
22:01 28.7739 -82.7244 320° Northwest 435 501 38,000  Level Jacksonville Center
22:02 28.8719 -82.8119 322° Northwest 435 501 38,000  Level Jacksonville Center
22:03 28.9658 -82.8997 321° Northwest 435 501 38,000  Level Jacksonville Center
22:04 29.0619 -82.9875 321° Northwest 435 501 38,000  Level Jacksonville Center
22:05 29.1578 -83.0733 322° Northwest 435 501 38,000  Level Jacksonville Center
22:06 29.2244 -83.1828 305° West 428 493 38,000  Level Jacksonville Center
22:07 29.2636 -83.3117 289° West 420 483 38,000  Level Jacksonville Center
22:08 29.3050 -83.4331 291° West 420 483 38,000  Level Jacksonville Center
22:09 29.3461 -83.5619 290° West 420 483 38,000  Level Jacksonville Center
22:10 29.3892 -83.6864 292° West 420 483 38,000  Level Jacksonville Center
22:12 29.4126 -83.8355 280° West  Level FlightAware Approximate
22:12 29.4689 -83.9325 280° West 413 475 38,000  Level Jacksonville Center
22:13 29.5097 -84.0594 290° West 413 475 38,000  Level Jacksonville Center
22:14 29.5481 -84.1817 290° West 413 475 38,000  Level Jacksonville Center
22:15 29.5886 -84.3089 290° West 413 475 38,000  Level Jacksonville Center
22:17 29.6096 -84.4584 279° West  Level FlightAware Approximate
22:17 29.6731 -84.5731 279° West 413 475 38,000  Level Jacksonville Center
22:18 29.7131 -84.6981 290° West 413 475 38,000  Level Jacksonville Center
22:19 29.7528 -84.8256 290° West 418 481 38,000  Level Jacksonville Center
22:20 29.7928 -84.9508 290° West 423 487 38,000  Level Jacksonville Center
22:21 29.8322 -85.0786 290° West 423 487 38,000  Level Jacksonville Center
22:22 29.8697 -85.2039 289° West 428 493 38,000  Level Jacksonville Center
22:23 29.9092 -85.3317 290° West 428 493 38,000  Level Jacksonville Center
22:24 29.9483 -85.4597 289° West 428 493 38,000  Level Jacksonville Center
22:25 29.9856 -85.5783 290° West 428 493 38,000  Level Jacksonville Center
22:26 30.0225 -85.7042 289° West 428 493 38,000  Level Jacksonville Center
22:27 30.0672 -85.8494 290° West 428 493 38,000  Level Jacksonville Center
22:28 30.1022 -85.9608 290° West 423 487 38,000  Level Jacksonville Center
22:29 30.1408 -86.0894 289° West 423 487 38,000  Level Jacksonville Center
22:30 30.1792 -86.2181 289° West 423 487 38,000  Level Jacksonville Center
22:31 30.2175 -86.3467 289° West 428 493 38,000  Level Jacksonville Center
22:32 30.2558 -86.4778 289° West 423 487 38,000  Level Jacksonville Center
22:33 30.2939 -86.6067 289° West 429 494 38,000  Level Jacksonville Center
22:34 30.3339 -86.7358 290° West 429 494 38,000  Level Jacksonville Center
22:35 30.3717 -86.8675 288° West 429 494 38,000  Level Jacksonville Center
22:36 30.4131 -87.0039 289° West 424 488 38,000  Level Jacksonville Center
22:37 30.4506 -87.1356 288° West 424 488 38,000  Level Jacksonville Center
22:38 30.4878 -87.2675 288° West 424 488 38,000  Level Jacksonville Center
22:41 30.5711 -87.5597 288° West 430 495 38,000  Level Houston Center
22:42 30.6094 -87.6917 289° West 430 495 38,000  Level Houston Center
22:43 30.6458 -87.8239 288° West 430 495 38,000  Level Houston Center
22:44 30.6822 -87.9564 288° West 430 495 38,000  Level Houston Center
22:45 30.7228 -88.1000 288° West 435 501 38,000  Level Houston Center
22:46 30.7578 -88.2317 287° West 430 495 38,000  Level Houston Center
22:47 30.7947 -88.3639 288° West 431 496 38,000  Level Houston Center
22:48 30.8325 -88.4958 288° West 431 496 38,000  Level Houston Center
22:49 30.8753 -88.6544 287° West 431 496 38,000  Level Houston Center
22:50 30.9111 -88.7897 287° West 435 501 38,000  Level Houston Center
22:51 30.9478 -88.9242 288° West 434 499 38,000  Level Houston Center
22:53 31.0225 -89.1894 288° West 434 499 38,000  Level Houston Center
22:54 31.0589 -89.3231 288° West 434 499 38,000  Level Houston Center
22:55 31.0961 -89.4578 288° West 438 504 38,000  Level Houston Center
22:56 31.1319 -89.5914 287° West 435 501 38,000  Level Houston Center
22:57 31.1683 -89.7289 287° West 442 509 38,000  Level Houston Center
22:58 31.2044 -89.8653 287° West 442 509 38,000  Level Houston Center
22:59 31.2419 -90.0000 288° West 438 504 38,000  Level Houston Center
23:00 31.2842 -90.1667 287° West 444 511 38,000  Level Houston Center
23:01 31.3214 -90.3042 288° West 445 512 38,000  Level Houston Center
23:02 31.3564 -90.4425 287° West 445 512 38,000  Level Houston Center
23:03 31.3919 -90.5800 287° West 445 512 38,000  Level Houston Center
23:04 31.4261 -90.7186 286° West 445 512 38,000  Level Houston Center
23:05 31.4614 -90.8578 287° West 447 514 38,000  Level Houston Center
23:06 31.4972 -90.9956 287° West 443 510 38,000  Level Houston Center
23:07 31.5294 -91.1314 286° West 444 511 38,000  Level Houston Center
23:08 31.5644 -91.2711 286° West 446 513 38,000  Level Houston Center
23:09 31.6067 -91.4369 287° West 444 511 38,000  Level Houston Center
23:10 31.6417 -91.5758 287° West 444 511 38,000  Level Houston Center
23:11 31.6764 -91.7150 286° West 445 512 38,000  Level Houston Center
23:12 31.7106 -91.8542 286° West 446 513 38,000  Level Houston Center
23:13 31.7447 -91.9944 286° West 448 516 38,000  Level Houston Center
23:14 31.7753 -92.1261 285° West 448 516 38,000  Level Houston Center
23:15 31.8108 -92.2686 286° West 455 524 38,000  Level Houston Center
23:16 31.8436 -92.4108 285° West 454 522 38,000  Level Houston Center
23:17 31.8783 -92.5531 286° West 453 521 38,000  Level Houston Center
23:18 31.9175 -92.7250 285° West 454 522 38,000  Level Houston Center
23:19 31.9517 -92.8678 286° West 454 522 38,000  Level Houston Center
23:20 31.9872 -93.0172 286° West 457 526 38,000  Level Houston Center
23:21 32.0208 -93.1600 286° West 455 524 38,000  Level Houston Center
23:22 32.0278 -93.1914 285° West 453 521 38,000  Level Fort Worth Center
23:24 32.0956 -93.4800 286° West 453 521 38,000  Level Fort Worth Center
23:25 32.1272 -93.6233 285° West 453 521 38,000  Level Fort Worth Center
23:26 32.1653 -93.7814 286° West 453 521 38,000  Level Fort Worth Center
23:27 32.1939 -93.9128 284° West 435 501 38,000  Level Fort Worth Center
23:28 32.2272 -94.0614 285° West 441 507 38,000  Level Fort Worth Center
23:29 32.2603 -94.2050 285° West 452 520 38,000  Level Fort Worth Center
23:30 32.2933 -94.3586 284° West 462 532 38,000  Level Fort Worth Center
23:31 32.3258 -94.5025 285° West 462 532 38,000  Level Fort Worth Center
23:32 32.3561 -94.6442 284° West 457 526 38,000  Level Fort Worth Center
23:33 32.3886 -94.7908 285° West 457 526 38,000  Level Fort Worth Center
23:34 32.4186 -94.9328 284° West 462 532 38,000  Level Fort Worth Center
23:35 32.4569 -95.0794 287° West 462 532 38,000  Level Fort Worth Center
23:36 32.4825 -95.2192 282° West 457 526 38,000  Level Fort Worth Center
23:37 32.5097 -95.3614 283° West 444 511 38,000  Level Fort Worth Center
23:38 32.5433 -95.5058 285° West 450 518 38,000  Level Fort Worth Center
23:39 32.5767 -95.6483 286° West 450 518 38,000  Level Fort Worth Center
23:40 32.6058 -95.7956 283° West 455 524 38,000  Level Fort Worth Center
23:41 32.6369 -95.9406 284° West 450 518 38,000  Level Fort Worth Center
23:42 32.6678 -96.0856 284° West 450 518 38,000  Level Fort Worth Center
23:43 32.6964 -96.2283 283° West 450 518 38,000  Level Fort Worth Center
23:44 32.7247 -96.3589 284° West 450 518 38,000  Level Fort Worth Center
23:45 32.7572 -96.5192 284° West 450 518 38,000  Level Fort Worth Center
23:46 32.7808 -96.6500 282° West 455 524 38,000  Level Fort Worth Center
23:47 32.8153 -96.8103 284° West 455 524 38,000  Level Fort Worth Center
23:48 32.8431 -96.9511 283° West 448 516 38,000  Level Fort Worth Center
23:49 32.8706 -97.0794 284° West 448 516 38,000  Level Fort Worth Center
23:51 32.9316 -97.3350 289° West  Level FlightAware Approximate
23:55 33.1203 -97.9294 290° West 447 514 38,000  Level Fort Worth Center
23:56 33.1636 -98.0661 291° West 447 514 38,000  Level Fort Worth Center
23:57 33.2044 -98.2031 290° West 447 514 38,000  Level Fort Worth Center
23:58 33.2138 -98.2572 289° West  Level FlightAware Approximate
23:58 33.2475 -98.3400 291° West 447 514 38,000  Level Fort Worth Center
23:59 33.2519 -98.3902 289° West  Level FlightAware Approximate
23:59 33.2881 -98.4769 290° West 447 514 38,000  Level Fort Worth Center
00:00 33.2903 -98.5231 290° West  Level FlightAware Approximate
00:00 33.3306 -98.6167 290° West 442 509 38,000  Level Fort Worth Center
00:01 33.3708 -98.7542 289° West 447 514 38,000  Level Fort Worth Center
00:02 33.4111 -98.8892 290° West 447 514 38,000  Level Fort Worth Center
00:03 33.4492 -99.0242 289° West 441 507 38,000  Level Fort Worth Center
00:04 33.4911 -99.1619 290° West 441 507 38,000  Level Fort Worth Center
00:05 33.5308 -99.2997 289° West 441 507 38,000  Level Fort Worth Center
00:06 33.5725 -99.4403 290° West 441 507 38,000  Level Fort Worth Center
00:07 33.6119 -99.5758 289° West 441 507 38,000  Level Fort Worth Center
00:08 33.6511 -99.7167 289° West 446 513 38,000  Level Fort Worth Center
00:09 33.6925 -99.8575 289° West 446 513 38,000  Level Fort Worth Center
00:10 33.7314 -99.9983 288° West 446 513 38,000  Level Fort Worth Center
00:11 33.7700 -100.1419 288° West 446 513 38,000  Level Fort Worth Center
00:12 33.8106 -100.2833 289° West 446 513 38,000  Level Fort Worth Center
00:13 33.8492 -100.4222 289° West 446 513 38,000  Level Fort Worth Center
00:14 33.8914 -100.5661 290° West 446 513 38,000  Level Fort Worth Center
00:15 33.9294 -100.7153 287° West 451 519 38,000  Level Fort Worth Center
00:16 33.9692 -100.8619 288° West 456 525 38,000  Level Fort Worth Center
00:17 34.0089 -101.0064 288° West 456 525 38,000  Level Fort Worth Center
00:18 34.0489 -101.1408 290° West 467 537 38,000  Level Fort Worth Center
00:19 34.0900 -101.3006 287° West 467 537 38,000  Level Fort Worth Center
00:20 34.1311 -101.4531 288° West 473 544 38,000  Level Fort Worth Center
00:21 34.1719 -101.6006 289° West 472 543 38,000  Level Fort Worth Center
00:22 34.2106 -101.7531 287° West 467 537 38,000  Level Fort Worth Center
00:23 34.2514 -101.9033 288° West 471 542 38,000  Level Fort Worth Center
00:24 34.2917 -102.0511 288° West 471 542 38,000  Level Fort Worth Center
00:25 34.3322 -102.2050 288° West 471 542 38,000  Level Albuquerque Center
00:26 34.3719 -102.3572 288° West 473 544 38,000  Level Albuquerque Center
00:28 34.4287 -102.6145 287° West  Level FlightAware Approximate
00:30 34.5169 -102.9661 281° West 467 537 38,000  Level Albuquerque Center
00:31 34.5406 -103.1231 280° West 467 537 38,000  Level Albuquerque Center
00:32 34.5633 -103.2792 280° West 466 536 38,000  Level Albuquerque Center
00:33 34.5869 -103.4350 280° West 465 535 38,000  Level Albuquerque Center
00:34 34.5919 -103.5928 272° West 462 532 38,000  Level Albuquerque Center
00:35 34.5980 -103.5918 281° West  Level FlightAware Approximate
00:35 34.5928 -103.7511 270° West 464 534 38,000  Level Albuquerque Center
00:36 34.5931 -103.9097 270° West 464 534 38,000  Level Albuquerque Center
00:37 34.5947 -104.0683 271° West 464 534 38,000  Level Albuquerque Center
00:38 34.5956 -104.2272 270° West 464 534 38,000  Level Albuquerque Center
00:39 34.5956 -104.3856 270° West 463 533 38,000  Level Albuquerque Center
00:40 34.5969 -104.5433 271° West 462 532 38,000  Level Albuquerque Center
00:41 34.5986 -104.7006 271° West 462 532 38,000  Level Albuquerque Center
00:42 34.5992 -104.8583 270° West 462 532 38,000  Level Albuquerque Center
00:43 34.5994 -105.0136 270° West 458 527 38,000  Level Albuquerque Center
00:44 34.5997 -105.1706 270° West 459 528 38,000  Level Albuquerque Center
00:45 34.5989 -105.3275 270° West 460 529 38,000  Level Albuquerque Center
00:46 34.5983 -105.4839 270° West 459 528 38,000  Level Albuquerque Center
00:47 34.5983 -105.6394 270° West 458 527 38,000  Level Albuquerque Center
00:48 34.5956 -105.7953 269° West 458 527 38,000  Level Albuquerque Center
00:49 34.5939 -105.9506 269° West 458 527 38,000  Level Albuquerque Center
00:50 34.5925 -106.1064 269° West 457 526 38,000  Level Albuquerque Center
00:51 34.5922 -106.2525 270° West 457 526 38,000  Level Albuquerque Center
00:52 34.5889 -106.4083 269° West 459 528 38,000  Level Albuquerque Center
00:53 34.5864 -106.5636 269° West 459 528 38,000  Level Albuquerque Center
00:54 34.5844 -106.7169 269° West 454 522 38,000  Level Albuquerque Center
00:56 34.5794 -107.0303 269° West 462 532 38,000  Level Albuquerque Center
00:57 34.5761 -107.1856 269° West 458 527 38,000  Level Albuquerque Center
00:58 34.5733 -107.3397 269° West 457 526 38,000  Level Albuquerque Center
00:59 34.5714 -107.4942 269° West 456 525 38,000  Level Albuquerque Center
01:00 34.5683 -107.6469 269° West 454 522 38,000  Level Albuquerque Center
01:01 34.5647 -107.7997 268° West 454 522 38,000  Level Albuquerque Center
01:02 34.5617 -107.9528 269° West 453 521 38,000  Level Albuquerque Center
01:03 34.5589 -108.1031 269° West 448 516 38,000  Level Albuquerque Center
01:04 34.5544 -108.2544 268° West 448 516 38,000  Level Albuquerque Center
01:05 34.5506 -108.4047 268° West 447 514 38,000  Level Albuquerque Center
01:06 34.5458 -108.5742 268° West 442 509 38,000  Level Albuquerque Center
01:07 34.5419 -108.7172 268° West 442 509 38,000  Level Albuquerque Center
01:08 34.5367 -108.8603 267° West 443 510 38,000  Level Albuquerque Center
01:09 34.5311 -109.0047 267° West 444 511 38,000  Level Albuquerque Center
01:10 34.5261 -109.1725 268° West 446 513 38,000  Level Albuquerque Center
01:11 34.5206 -109.3167 267° West 446 513 38,000  Level Albuquerque Center
01:12 34.5156 -109.4633 268° West 450 518 38,000  Level Albuquerque Center
01:13 34.5092 -109.6300 267° West 446 513 38,000  Level Albuquerque Center
01:14 34.5039 -109.7742 267° West 446 513 38,000  Level Albuquerque Center
01:15 34.4972 -109.9186 267° West 447 514 38,000  Level Albuquerque Center
01:16 34.4914 -110.0853 268° West 443 510 38,000  Level Albuquerque Center
01:17 34.4844 -110.2281 267° West 442 509 38,000  Level Albuquerque Center
01:18 34.4781 -110.3711 267° West 444 511 38,000  Level Albuquerque Center
01:19 34.4731 -110.5303 268° West 456 525 38,000  Level Albuquerque Center
01:20 34.4647 -110.6792 266° West 449 517 38,000  Level Albuquerque Center
01:21 34.4547 -110.8289 265° West 448 516 38,000  Level Albuquerque Center
01:22 34.4469 -110.9806 266° West 451 519 38,000  Level Albuquerque Center
01:23 34.4397 -111.1325 267° West 453 521 38,000  Level Albuquerque Center
01:24 34.4319 -111.2836 266° West 453 521 38,000  Level Albuquerque Center
01:25 34.4225 -111.4297 266° West 444 511 38,000  Level Albuquerque Center
01:26 34.4142 -111.5758 266° West 440 506 38,000  Level Albuquerque Center
01:27 34.4064 -111.7192 266° West 436 502 38,000  Level Albuquerque Center
01:28 34.3975 -111.8600 266° West 431 496 38,000  Level Albuquerque Center
01:29 34.3894 -112.0000 266° West 425 489 38,000  Level Albuquerque Center
01:30 34.3786 -112.1697 266° West 425 489 38,000  Level Albuquerque Center
01:31 34.3714 -112.3133 267° West 427 491 38,000  Level Albuquerque Center
01:32 34.3619 -112.4575 266° West 431 496 38,000  Level Albuquerque Center
01:33 34.3533 -112.6011 266° West 431 496 38,000  Level Albuquerque Center
01:34 34.3433 -112.7431 265° West 428 493 38,000  Level Albuquerque Center
01:35 34.3344 -112.8858 266° West 426 490 38,000  Level Albuquerque Center
01:36 34.3247 -113.0281 265° West 427 491 38,000  Level Albuquerque Center
01:37 34.3144 -113.1689 265° West 425 489 38,000  Level Albuquerque Center
01:38 34.3058 -113.3100 266° West 424 488 38,000  Level Albuquerque Center
01:39 34.2947 -113.4517 265° West 423 487 38,000  Level Albuquerque Center
01:40 34.2858 -113.5928 266° West 423 487 38,000  Level Albuquerque Center
01:41 34.2750 -113.7386 265° West 423 487 38,000  Level Albuquerque Center
01:42 34.2639 -113.8814 265° West 425 489 38,000  Level Albuquerque Center
01:43 34.2542 -114.0231 265° West 424 488 38,000  Level Albuquerque Center
01:44 34.2425 -114.1678 264° West 429 494 38,000  Level Albuquerque Center
01:45 34.2333 -114.3089 266° West 425 489 38,000  Level Albuquerque Center
01:46 34.2278 -114.3786 265° West 429 494 38,000  Level Los Angeles Center
01:47 34.2169 -114.5219 265° West 430 495 38,000  Level Los Angeles Center
01:48 34.2058 -114.6650 265° West 428 493 38,000  Level Los Angeles Center
01:49 34.1944 -114.8061 264° West 426 490 38,000  Level Los Angeles Center
01:50 34.1819 -114.9511 264° West 434 499 38,000  Level Los Angeles Center
01:51 34.1700 -115.0931 264° West 429 494 38,000 -120 Level Los Angeles Center
01:52 34.1575 -115.2364 264° West 432 497 37,800 -900 Descending Los Angeles Center
01:53 34.1461 -115.3792 265° West 430 495 36,300 -1,560 Descending Los Angeles Center
01:54 34.1325 -115.5239 264° West 436 502 34,700 -1,140 Descending Los Angeles Center
01:55 34.1206 -115.6636 264° West 426 490 34,000 -360 Descending Los Angeles Center
01:56 34.1056 -115.8014 263° West 418 481 34,000 -840 Level Los Angeles Center
01:57 34.0828 -115.9592 260° West 404 465 32,400 -1,800 Descending Los Angeles Center
01:58 34.0622 -116.0972 260° West 417 480 30,400 -2,040 Descending Los Angeles Center
01:59 34.0408 -116.2353 259° West 421 484 28,300 -2,040 Descending Los Angeles Center
02:00 34.0197 -116.3756 260° West 426 490 26,300 -2,040 Descending Los Angeles Center
02:01 34.0014 -116.5108 261° West 415 478 24,300 -2,040 Descending Los Angeles Center
02:02 33.9914 -116.6431 265° West 400 460 22,300 -1,920 Descending Los Angeles Center
02:03 33.9814 -116.7725 265° West 390 449 20,400 -1,920 Descending Los Angeles Center
02:04 33.9703 -116.8986 264° West 385 443 18,500 -1,920 Descending Los Angeles Center
02:05 33.9667 -116.9833 267° West 366 421 17,200 -960 Descending Southern California TRACON
02:06 33.9500 -117.1167 261° West 355 409 16,900 -660 Descending Southern California TRACON
02:07 33.9500 -117.2333 270° West 352 405 15,900 -1,020 Descending Southern California TRACON
02:08 33.9333 -117.3333 259° West 325 374 15,000 -900 Descending Southern California TRACON
02:09 33.9500 -117.4333 281° West 300 345 14,100 -960 Descending Southern California TRACON
02:10 33.9833 -117.5333 292° West 290 334 13,100 -1,140 Descending Southern California TRACON
02:11 34.0167 -117.6167 296° West 353 406 11,900 -1,320 Descending Southern California TRACON
02:12 34.0000 -117.7167 259° West 271 312 10,500 -1,440 Descending Southern California TRACON
02:13 34.0000 -117.8167 270° West 260 299 9,100 -1,440 Descending Southern California TRACON
02:14 33.9833 -117.9000 256° West 241 277 7,600 -1,320 Descending Southern California TRACON
02:15 33.9833 -117.9833 270° West 242 278 6,400 -1,020 Descending Southern California TRACON
02:16 33.9667 -118.0667 256° West 209 241 5,500 -900 Descending Southern California TRACON
02:17 33.9667 -118.1333 270° West 201 231 4,600 -840 Descending Southern California TRACON
02:17 33.9636 -118.1336 184° South 203 234 4,500 -780 Descending Los Angeles Center
02:18 33.9561 -118.2028 263° West 207 238 3,600 -900 Descending Los Angeles Center